createdAt,value
2019-04-05T00:00:17.946Z,21.57
2019-04-05T00:02:45.825Z,21.50
2019-04-05T00:05:13.890Z,22.73
2019-04-05T00:07:41.710Z,25.07
2019-04-05T00:10:09.596Z,24.40
2019-04-05T00:12:37.254Z,25.63
2019-04-05T00:15:15.281Z,23.77
2019-04-05T00:17:35.606Z,26.43
2019-04-05T00:20:03.895Z,25.13
2019-04-05T00:25:14.746Z,24.87
2019-04-05T00:30:43.642Z,21.60
2019-04-05T00:33:11.918Z,21.10
2019-04-05T00:35:39.732Z,21.03
2019-04-05T00:38:09.268Z,19.47
2019-04-05T00:40:36.948Z,19.50
2019-04-05T00:43:06.282Z,20.30
2019-04-05T00:45:34.187Z,20.40
2019-04-05T00:48:02.580Z,19.23
2019-04-05T00:50:31.523Z,19.53
2019-04-05T00:53:00.471Z,17.73
2019-04-05T00:55:30.850Z,17.47
2019-04-05T00:57:58.576Z,16.73
2019-04-05T01:00:26.223Z,16.30
2019-04-05T01:02:54.439Z,16.23
2019-04-05T01:05:22.406Z,15.87
2019-04-05T01:07:50.046Z,16.47
2019-04-05T01:10:17.779Z,16.43
2019-04-05T01:12:45.517Z,15.97
2019-04-05T01:15:14.369Z,15.20
2019-04-05T01:17:42.062Z,15.90
2019-04-05T01:20:09.992Z,17.40
2019-04-05T01:22:38.351Z,17.23
2019-04-05T01:25:06.280Z,29.80
2019-04-05T01:27:36.579Z,21.73
2019-04-05T01:30:05.646Z,21.20
2019-04-05T01:32:33.526Z,21.47
2019-04-05T01:35:01.222Z,21.10
2019-04-05T01:37:29.109Z,30.12
2019-04-05T01:39:58.919Z,23.97
2019-04-05T01:42:26.850Z,27.52
2019-04-05T01:44:54.575Z,21.87
2019-04-05T01:47:22.210Z,19.30
2019-04-05T01:49:49.794Z,19.10
2019-04-05T01:52:17.721Z,17.63
2019-04-05T01:54:45.319Z,16.80
2019-04-05T01:57:12.924Z,16.50
2019-04-05T01:59:40.544Z,16.70
2019-04-05T02:02:08.280Z,17.63
2019-04-05T02:04:35.939Z,17.23
2019-04-05T02:07:03.831Z,17.50
2019-04-05T02:09:31.462Z,17.93
2019-04-05T02:11:59.356Z,19.23
2019-04-05T02:14:27.247Z,18.10
2019-04-05T02:16:54.882Z,19.03
2019-04-05T02:19:23.069Z,18.97
2019-04-05T02:21:50.692Z,20.27
2019-04-05T02:24:18.593Z,19.47
2019-04-05T02:26:46.205Z,20.23
2019-04-05T02:29:13.833Z,21.93
2019-04-05T02:31:41.405Z,21.87
2019-04-05T02:34:09.165Z,25.10
2019-04-05T02:36:36.740Z,24.33
2019-04-05T02:39:05.471Z,24.43
2019-04-05T02:41:35.756Z,25.27
2019-04-05T02:44:05.121Z,25.90
2019-04-05T02:46:33.011Z,27.07
2019-04-05T02:49:01.086Z,27.03
2019-04-05T02:51:30.751Z,28.50
2019-04-05T02:53:58.784Z,28.93
2019-04-05T02:56:27.744Z,29.13
2019-04-05T02:58:55.811Z,28.77
2019-04-05T03:01:23.887Z,31.53
2019-04-05T03:03:51.592Z,33.37
2019-04-05T03:06:19.211Z,33.47
2019-04-05T03:08:46.776Z,35.57
2019-04-05T03:11:16.108Z,40.03
2019-04-05T03:13:46.498Z,40.47
2019-04-05T03:16:16.523Z,44.23
2019-04-05T03:18:47.003Z,46.43
2019-04-05T03:21:14.972Z,48.77
2019-04-05T03:23:42.952Z,50.07
2019-04-05T03:26:11.930Z,50.43
2019-04-05T03:28:40.588Z,50.93
2019-04-05T03:31:08.869Z,48.50
2019-04-05T03:33:36.416Z,49.60
2019-04-05T03:36:04.064Z,53.80
2019-04-05T03:38:31.643Z,54.93
2019-04-05T03:40:59.380Z,53.80
2019-04-05T03:43:27.439Z,59.90
2019-04-05T03:45:55.270Z,58.37
2019-04-05T03:48:23.042Z,57.03
2019-04-05T03:50:53.240Z,58.23
2019-04-05T03:53:21.665Z,58.57
2019-04-05T03:55:49.471Z,58.60
2019-04-05T03:58:17.091Z,56.57
2019-04-05T04:00:44.674Z,53.93
2019-04-05T04:03:14.360Z,52.70
2019-04-05T04:05:41.945Z,52.63
2019-04-05T04:08:09.794Z,50.30
2019-04-05T04:10:41.823Z,52.37
2019-04-05T04:13:09.450Z,51.17
2019-04-05T04:15:37.287Z,52.67
2019-04-05T04:18:04.969Z,57.70
2019-04-05T04:20:49.579Z,56.93
2019-04-05T04:23:17.429Z,56.63
2019-04-05T04:25:46.111Z,54.50
2019-04-05T04:28:13.725Z,58.63
2019-04-05T04:30:41.761Z,54.23
2019-04-05T04:33:11.653Z,56.30
2019-04-05T04:35:39.781Z,62.70
2019-04-05T04:38:09.787Z,65.73
2019-04-05T04:40:37.624Z,59.53
2019-04-05T04:43:05.217Z,60.77
2019-04-05T04:45:33.115Z,59.23
2019-04-05T04:48:00.723Z,54.90
2019-04-05T04:53:27.982Z,52.63
2019-04-05T04:55:55.577Z,52.93
2019-04-05T04:58:23.277Z,53.97
2019-04-05T05:00:51.847Z,49.73
2019-04-05T05:03:19.616Z,52.73
2019-04-05T05:05:47.306Z,52.37
2019-04-05T05:08:14.966Z,51.50
2019-04-05T05:10:42.417Z,52.40
2019-04-05T05:13:10.161Z,53.03
2019-04-05T05:15:37.749Z,51.67
2019-04-05T05:18:05.384Z,50.47
2019-04-05T05:20:33.274Z,50.40
2019-04-05T05:23:01.338Z,50.40
2019-04-05T05:25:29.453Z,48.37
2019-04-05T05:27:57.186Z,49.37
2019-04-05T05:30:25.272Z,47.57
2019-04-05T05:32:53.818Z,49.57
2019-04-05T05:35:21.529Z,50.80
2019-04-05T05:37:49.343Z,53.50
2019-04-05T05:40:17.020Z,57.47
2019-04-05T05:42:44.485Z,59.13
2019-04-05T05:45:12.057Z,62.73
2019-04-05T05:47:51.133Z,60.40
2019-04-05T05:50:09.077Z,55.70
2019-04-05T05:52:36.624Z,52.33
2019-04-05T05:55:04.333Z,50.27
2019-04-05T05:57:32.237Z,52.13
2019-04-05T06:00:00.515Z,47.07
2019-04-05T06:02:28.719Z,37.20
2019-04-05T06:04:56.298Z,34.57
2019-04-05T06:07:23.848Z,33.80
2019-04-05T06:09:51.416Z,29.73
2019-04-05T06:12:18.993Z,25.87
2019-04-05T06:14:46.595Z,22.27
2019-04-05T06:17:14.482Z,19.43
2019-04-05T06:19:42.008Z,15.97
2019-04-05T06:22:09.635Z,15.03
2019-04-05T06:24:37.172Z,13.57
2019-04-05T06:27:04.737Z,13.13
2019-04-05T06:29:32.319Z,13.43
2019-04-05T06:31:59.882Z,11.90
2019-04-05T06:34:27.726Z,11.23
2019-04-05T06:36:55.323Z,11.13
2019-04-05T06:39:23.159Z,10.83
2019-04-05T06:41:52.033Z,11.67
2019-04-05T06:44:19.612Z,9.20
2019-04-05T06:46:47.162Z,8.70
2019-04-05T06:49:14.996Z,10.40
2019-04-05T06:51:42.509Z,9.30
2019-04-05T06:54:10.363Z,9.57
2019-04-05T06:56:37.999Z,8.30
2019-04-05T06:59:06.123Z,8.40
2019-04-05T07:01:34.063Z,8.70
2019-04-05T07:04:01.667Z,7.83
2019-04-05T07:06:29.293Z,8.13
2019-04-05T07:08:56.887Z,8.27
2019-04-05T07:11:24.588Z,8.30
2019-04-05T07:13:52.207Z,7.13
2019-04-05T07:16:19.825Z,6.77
2019-04-05T07:18:47.431Z,8.57
2019-04-05T07:21:17.343Z,6.87
2019-04-05T07:23:45.033Z,6.60
2019-04-05T07:26:12.643Z,6.47
2019-04-05T07:28:40.342Z,7.00
2019-04-05T07:31:08.298Z,7.13
2019-04-05T07:33:35.878Z,7.70
2019-04-05T07:36:03.717Z,7.33
2019-04-05T07:38:31.563Z,8.10
2019-04-05T07:40:59.251Z,7.60
2019-04-05T07:43:26.837Z,7.37
2019-04-05T07:45:54.428Z,7.47
2019-04-05T07:48:22.065Z,7.77
2019-04-05T07:50:49.969Z,7.40
2019-04-05T07:53:17.529Z,7.58
2019-04-05T07:55:45.738Z,7.07
2019-04-05T07:58:14.492Z,6.43
2019-04-05T08:00:47.459Z,7.37
2019-04-05T08:03:15.202Z,7.20
2019-04-05T08:05:43.393Z,6.00
2019-04-05T08:08:16.163Z,6.53
2019-04-05T08:10:45.125Z,6.77
2019-04-05T08:13:14.592Z,6.83
2019-04-05T08:15:42.645Z,6.90
2019-04-05T08:18:10.239Z,6.40
2019-04-05T08:20:38.425Z,6.17
2019-04-05T08:23:07.402Z,7.20
2019-04-05T08:25:35.035Z,6.37
2019-04-05T08:28:02.904Z,6.40
2019-04-05T08:30:30.533Z,6.27
2019-04-05T08:32:58.444Z,6.07
2019-04-05T08:35:26.083Z,5.83
2019-04-05T08:37:53.751Z,6.00
2019-04-05T08:40:21.512Z,5.60
2019-04-05T08:42:49.171Z,6.20
2019-04-05T08:45:16.813Z,5.10
2019-04-05T08:47:44.427Z,4.80
2019-04-05T08:50:12.119Z,4.50
2019-04-05T08:52:39.795Z,4.87
2019-04-05T08:55:07.399Z,4.53
2019-04-05T08:57:36.229Z,5.33
2019-04-05T09:00:04.676Z,4.00
2019-04-05T09:02:33.386Z,3.70
2019-04-05T09:05:01.210Z,4.57
2019-04-05T09:07:28.891Z,3.67
2019-04-05T09:09:56.522Z,3.83
2019-04-05T09:12:24.158Z,4.27
2019-04-05T09:14:52.050Z,7.57
2019-04-05T09:17:19.842Z,4.23
2019-04-05T09:19:48.002Z,4.00
2019-04-05T09:22:15.657Z,3.43
2019-04-05T09:24:43.620Z,4.28
2019-04-05T09:27:12.463Z,3.70
2019-04-05T09:29:40.097Z,3.97
2019-04-05T09:32:07.803Z,4.60
2019-04-05T09:34:35.398Z,4.37
2019-04-05T09:37:02.926Z,4.72
2019-04-05T09:39:31.284Z,4.67
2019-04-05T09:41:59.184Z,4.62
2019-04-05T09:44:27.033Z,5.03
2019-04-05T09:46:55.496Z,2.70
2019-04-05T09:49:35.793Z,3.75
2019-04-05T09:51:52.699Z,3.95
2019-04-05T09:54:20.661Z,3.67
2019-04-05T09:56:48.733Z,4.65
2019-04-05T09:59:16.538Z,3.15
2019-04-05T10:01:44.147Z,3.95
2019-04-05T10:04:11.931Z,4.22
2019-04-05T10:06:39.833Z,2.73
2019-04-05T10:09:07.787Z,3.40
2019-04-05T10:11:35.420Z,3.45
2019-04-05T10:14:03.872Z,4.67
2019-04-05T10:16:31.919Z,4.00
2019-04-05T10:18:59.595Z,3.90
2019-04-05T10:21:27.745Z,4.03
2019-04-05T10:23:55.392Z,4.15
2019-04-05T10:26:25.163Z,5.03
2019-04-05T10:28:53.001Z,4.67
2019-04-05T10:31:20.827Z,3.40
2019-04-05T10:33:48.544Z,3.55
2019-04-05T10:36:16.420Z,3.95
2019-04-05T10:38:44.254Z,4.83
2019-04-05T10:41:12.122Z,5.00
2019-04-05T10:43:42.091Z,3.75
2019-04-05T10:46:10.128Z,3.87
2019-04-05T10:48:37.749Z,3.33
2019-04-05T10:51:05.675Z,3.45
2019-04-05T10:53:33.559Z,4.05
2019-04-05T10:56:01.809Z,3.22
2019-04-05T10:58:29.466Z,3.10
2019-04-05T11:00:57.064Z,4.00
2019-04-05T11:03:25.936Z,3.55
2019-04-05T11:05:53.506Z,2.58
2019-04-05T11:08:21.447Z,3.70
2019-04-05T11:10:49.039Z,3.80
2019-04-05T11:13:17.741Z,4.08
2019-04-05T11:15:45.290Z,3.10
2019-04-05T11:18:12.825Z,3.60
2019-04-05T11:20:40.711Z,2.40
2019-04-05T11:23:08.198Z,3.50
2019-04-05T11:25:36.052Z,3.33
2019-04-05T11:28:03.664Z,4.20
2019-04-05T11:30:37.095Z,3.15
2019-04-05T11:33:04.694Z,2.90
2019-04-05T11:35:32.553Z,3.52
2019-04-05T11:38:00.217Z,2.50
2019-04-05T11:40:27.770Z,2.22
2019-04-05T11:42:57.675Z,3.40
2019-04-05T11:45:25.785Z,2.65
2019-04-05T11:47:55.667Z,3.25
2019-04-05T11:50:33.783Z,3.27
2019-04-05T11:52:52.964Z,3.83
2019-04-05T11:55:20.555Z,2.35
2019-04-05T11:57:49.233Z,3.10
2019-04-05T12:00:21.081Z,3.52
2019-04-05T12:02:52.762Z,2.75
2019-04-05T12:05:22.515Z,2.87
2019-04-05T12:07:49.770Z,3.05
2019-04-05T12:10:19.446Z,3.90
2019-04-05T12:12:47.241Z,4.10
2019-04-05T12:15:14.924Z,2.95
2019-04-05T12:17:42.507Z,2.55
2019-04-05T12:20:10.378Z,2.70
2019-04-05T12:22:37.837Z,3.40
2019-04-05T12:25:05.632Z,3.65
2019-04-05T12:27:33.214Z,3.42
2019-04-05T12:30:00.901Z,3.70
2019-04-05T12:32:34.609Z,3.12
2019-04-05T12:34:58.960Z,3.67
2019-04-05T12:37:26.876Z,3.95
2019-04-05T12:39:54.458Z,4.17
2019-04-05T12:42:22.075Z,4.37
2019-04-05T12:44:49.930Z,3.80
2019-04-05T12:47:18.535Z,4.05
2019-04-05T12:49:46.111Z,3.87
2019-04-05T12:52:22.717Z,2.62
2019-04-05T12:54:43.831Z,3.40
2019-04-05T12:57:11.391Z,3.83
2019-04-05T12:59:40.011Z,3.55
2019-04-05T13:02:07.578Z,4.47
2019-04-05T13:04:35.155Z,4.35
2019-04-05T13:07:03.282Z,5.72
2019-04-05T13:09:30.922Z,4.65
2019-04-05T13:11:58.503Z,5.22
2019-04-05T13:14:26.983Z,4.53
2019-04-05T13:16:54.610Z,5.25
2019-04-05T13:19:22.486Z,4.00
2019-04-05T13:21:50.326Z,4.50
2019-04-05T13:24:17.927Z,4.45
2019-04-05T13:26:45.530Z,4.15
2019-04-05T13:29:13.084Z,4.28
2019-04-05T13:31:40.929Z,4.33
2019-04-05T13:34:08.476Z,3.95
2019-04-05T13:36:37.079Z,4.05
2019-04-05T13:39:05.372Z,4.25
2019-04-05T13:41:33.253Z,4.50
2019-04-05T13:44:01.546Z,4.67
2019-04-05T13:46:30.079Z,4.22
2019-04-05T13:48:57.583Z,5.05
2019-04-05T13:51:28.070Z,4.20
2019-04-05T13:53:54.690Z,4.17
2019-04-05T13:56:22.554Z,5.20
2019-04-05T13:58:50.166Z,5.30
2019-04-05T14:01:18.503Z,5.40
2019-04-05T14:03:48.476Z,4.97
2019-04-05T14:06:16.720Z,5.58
2019-04-05T14:08:44.279Z,6.85
2019-04-05T14:11:11.830Z,7.05
2019-04-05T14:13:42.665Z,7.58
2019-04-05T14:16:12.270Z,7.70
2019-04-05T14:18:38.946Z,7.35
2019-04-05T14:21:06.477Z,7.25
2019-04-05T14:23:34.033Z,8.00
2019-04-05T14:26:01.589Z,10.00
2019-04-05T14:28:29.160Z,8.48
2019-04-05T14:30:56.741Z,11.08
2019-04-05T14:33:24.821Z,9.78
2019-04-05T14:35:54.789Z,10.40
2019-04-05T14:38:23.179Z,8.40
2019-04-05T14:40:51.557Z,10.38
2019-04-05T14:43:21.251Z,9.93
2019-04-05T14:45:48.506Z,15.68
2019-04-05T14:48:16.075Z,16.85
2019-04-05T14:50:43.642Z,16.25
2019-04-05T14:53:11.496Z,20.50
2019-04-05T14:55:39.180Z,21.80
2019-04-05T14:58:06.768Z,18.02
2019-04-05T15:00:34.371Z,20.20
2019-04-05T15:03:02.240Z,22.20
2019-04-05T15:05:29.785Z,17.57
2019-04-05T15:07:57.332Z,20.65
2019-04-05T15:10:25.280Z,19.37
2019-04-05T15:12:53.777Z,19.48
2019-04-05T15:15:22.413Z,16.37
2019-04-05T15:17:49.999Z,16.67
2019-04-05T15:20:17.668Z,16.15
2019-04-05T15:22:45.237Z,16.37
2019-04-05T15:25:16.729Z,16.85
2019-04-05T15:27:42.385Z,17.23
2019-04-05T15:30:10.016Z,15.23
2019-04-05T15:32:37.644Z,18.23
2019-04-05T15:35:05.493Z,13.55
2019-04-05T15:37:33.336Z,11.25
2019-04-05T15:40:01.247Z,11.22
2019-04-05T15:42:28.827Z,11.53
2019-04-05T15:44:56.418Z,11.40
2019-04-05T15:47:23.992Z,10.08
2019-04-05T15:49:52.153Z,9.85
2019-04-05T15:52:20.699Z,9.40
2019-04-05T15:54:48.259Z,9.70
2019-04-05T15:57:15.827Z,10.43
2019-04-05T15:59:45.117Z,9.93
2019-04-05T16:02:12.827Z,8.65
2019-04-05T16:04:40.686Z,8.33
2019-04-05T16:07:08.276Z,8.45
2019-04-05T16:09:35.865Z,8.80
2019-04-05T16:12:04.395Z,8.45
2019-04-05T16:14:31.937Z,8.30
2019-04-05T16:16:59.537Z,8.45
2019-04-05T16:20:07.910Z,8.10
2019-04-05T16:22:36.073Z,7.60
2019-04-05T16:25:04.119Z,7.57
2019-04-05T16:27:31.695Z,7.60
2019-04-05T16:29:59.282Z,6.92
2019-04-05T16:32:26.852Z,7.72
2019-04-05T16:34:54.431Z,6.95
2019-04-05T16:37:22.297Z,7.00
2019-04-05T16:39:49.870Z,7.25
2019-04-05T16:42:18.008Z,7.30
2019-04-05T16:44:45.936Z,7.37
2019-04-05T16:47:13.639Z,7.30
2019-04-05T16:49:41.190Z,7.80
2019-04-05T16:52:08.824Z,6.30
2019-04-05T16:54:36.347Z,7.58
2019-04-05T16:57:03.944Z,8.00
2019-04-05T16:59:31.510Z,9.05
2019-04-05T17:01:59.098Z,9.58
2019-04-05T17:04:26.916Z,6.85
2019-04-05T17:06:55.500Z,6.97
2019-04-05T17:09:23.360Z,6.83
2019-04-05T17:11:50.939Z,7.15
2019-04-05T17:14:18.517Z,7.35
2019-04-05T17:16:46.347Z,8.48
2019-04-05T17:19:13.916Z,9.78
2019-04-05T17:21:41.530Z,9.53
2019-04-05T17:24:09.141Z,9.37
2019-04-05T17:26:36.690Z,10.03
2019-04-05T17:29:04.190Z,8.50
2019-04-05T17:31:31.778Z,7.92
2019-04-05T17:33:59.353Z,7.80
2019-04-05T17:36:27.194Z,7.57
2019-04-05T17:38:54.767Z,8.15
2019-04-05T17:41:22.592Z,7.20
2019-04-05T17:43:50.070Z,7.40
2019-04-05T17:46:17.873Z,9.50
2019-04-05T17:48:45.436Z,10.73
2019-04-05T17:51:12.996Z,10.53
2019-04-05T17:53:40.556Z,9.43
2019-04-05T17:56:08.345Z,10.23
2019-04-05T17:58:36.010Z,9.70
2019-04-05T18:01:04.026Z,8.40
2019-04-05T18:03:31.815Z,8.37
2019-04-05T18:06:00.626Z,9.17
2019-04-05T18:08:28.225Z,9.93
2019-04-05T18:10:55.751Z,9.00
2019-04-05T18:13:24.446Z,9.20
2019-04-05T18:15:53.092Z,9.00
2019-04-05T18:18:20.750Z,8.90
2019-04-05T18:20:48.584Z,9.77
2019-04-05T18:23:24.876Z,8.90
2019-04-05T18:25:45.523Z,10.00
2019-04-05T18:28:13.092Z,9.83
2019-04-05T18:30:40.655Z,9.63
2019-04-05T18:33:08.223Z,10.73
2019-04-05T18:35:36.063Z,10.20
2019-04-05T18:38:04.190Z,9.20
2019-04-05T18:40:39.903Z,10.20
2019-04-05T18:43:01.201Z,11.33
2019-04-05T18:45:28.820Z,9.97
2019-04-05T18:47:56.385Z,8.50
2019-04-05T18:50:24.109Z,8.50
2019-04-05T18:52:51.982Z,8.00
2019-04-05T18:55:19.535Z,8.87
2019-04-05T18:57:47.135Z,8.17
2019-04-05T19:00:14.713Z,9.33
2019-04-05T19:02:43.515Z,8.37
2019-04-05T19:05:11.231Z,9.17
2019-04-05T19:07:39.166Z,8.87
2019-04-05T19:10:06.692Z,8.67
2019-04-05T19:12:34.726Z,8.17
2019-04-05T19:15:02.583Z,7.83
2019-04-05T19:17:30.178Z,7.73
2019-04-05T19:19:57.741Z,8.27
2019-04-05T19:22:25.536Z,7.80
2019-04-05T19:24:53.063Z,8.73
2019-04-05T19:27:20.626Z,8.33
2019-04-05T19:29:48.191Z,6.83
2019-04-05T19:49:43.043Z,6.33
2019-04-05T19:52:11.198Z,6.30
2019-04-05T19:54:39.009Z,7.37
2019-04-05T19:57:07.582Z,6.47
2019-04-05T19:59:35.151Z,7.00
2019-04-05T20:02:02.834Z,6.60
2019-04-05T20:04:30.366Z,6.87
2019-04-05T20:06:58.637Z,5.83
2019-04-05T20:09:27.455Z,6.77
2019-04-05T20:11:55.025Z,6.40
2019-04-05T20:14:22.578Z,6.77
2019-04-05T20:16:50.157Z,6.90
2019-04-05T20:19:17.747Z,6.50
2019-04-05T20:21:45.382Z,7.10
2019-04-05T20:24:14.528Z,7.37
2019-04-05T20:26:42.155Z,7.70
2019-04-05T20:29:09.707Z,7.07
2019-04-05T20:31:37.569Z,6.77
2019-04-05T20:34:05.857Z,6.90
2019-04-05T20:36:33.650Z,7.20
2019-04-05T20:39:01.278Z,7.17
2019-04-05T20:41:28.803Z,7.53
2019-04-05T20:43:56.361Z,7.73
2019-04-05T20:46:23.923Z,7.43
2019-04-05T20:48:51.775Z,9.53
2019-04-05T20:51:19.384Z,8.07
2019-04-05T20:53:46.938Z,8.10
2019-04-05T20:56:14.793Z,9.47
2019-04-05T20:58:42.334Z,10.08
2019-04-05T21:01:09.790Z,11.40
2019-04-05T21:03:37.353Z,12.97
2019-04-05T21:06:05.177Z,15.80
2019-04-05T21:08:33.028Z,18.17
2019-04-05T21:11:00.574Z,18.03
2019-04-05T21:13:28.143Z,20.73
2019-04-05T21:15:55.682Z,20.13
2019-04-05T21:18:23.241Z,23.27
2019-04-05T21:20:51.083Z,22.17
2019-04-05T21:23:18.967Z,23.10
2019-04-05T21:25:46.524Z,22.23
2019-04-05T21:28:14.122Z,22.03
2019-04-05T21:30:42.249Z,23.13
2019-04-05T21:33:09.880Z,23.83
2019-04-05T21:35:37.754Z,24.13
2019-04-05T21:38:05.443Z,24.83
2019-04-05T21:40:33.053Z,23.57
2019-04-05T21:43:00.703Z,27.43
2019-04-05T21:45:28.882Z,27.87
2019-04-05T21:47:56.482Z,26.67
2019-04-05T21:50:24.092Z,26.30
2019-04-05T21:52:51.975Z,30.20
2019-04-05T21:55:20.022Z,29.13
2019-04-05T21:57:47.617Z,29.30
2019-04-05T22:00:20.531Z,30.07
2019-04-05T22:02:48.421Z,28.97
2019-04-05T22:05:16.277Z,28.53
2019-04-05T22:07:44.199Z,28.93
2019-04-05T22:10:12.047Z,29.83
2019-04-05T22:12:40.540Z,29.53
2019-04-05T22:15:08.234Z,28.40
2019-04-05T22:17:49.251Z,29.72
2019-04-05T22:20:16.740Z,27.30
2019-04-05T22:22:44.952Z,28.03
2019-04-05T22:25:12.637Z,26.57
2019-04-05T22:27:40.212Z,25.10
2019-04-05T22:30:08.628Z,28.47
2019-04-05T22:32:37.596Z,29.60
2019-04-05T22:35:05.344Z,25.47
2019-04-05T22:37:32.998Z,24.23
2019-04-05T22:40:00.630Z,20.93
2019-04-05T22:42:28.561Z,17.97
2019-04-05T22:44:56.176Z,15.03
2019-04-05T22:47:24.045Z,15.73
2019-04-05T22:49:57.831Z,13.37
2019-04-05T22:52:25.456Z,15.67
2019-04-05T22:54:53.082Z,14.60
2019-04-05T22:57:20.987Z,15.33
2019-04-05T22:59:48.665Z,15.73
2019-04-05T23:02:16.617Z,15.43
2019-04-05T23:04:44.221Z,17.53
2019-04-05T23:07:11.865Z,16.13
2019-04-05T23:09:39.776Z,16.83
2019-04-05T23:12:07.423Z,17.57
2019-04-05T23:14:35.063Z,16.80
2019-04-05T23:17:02.738Z,16.33
2019-04-05T23:19:30.634Z,17.70
2019-04-05T23:22:00.749Z,17.43
2019-04-05T23:24:27.687Z,16.70
2019-04-05T23:26:55.595Z,17.37
2019-04-05T23:29:23.542Z,17.37
2019-04-05T23:31:51.149Z,18.47
2019-04-05T23:34:18.820Z,18.37
2019-04-05T23:36:46.725Z,18.40
2019-04-05T23:39:14.626Z,16.80
2019-04-05T23:41:42.516Z,17.93
2019-04-05T23:44:10.122Z,18.87
2019-04-05T23:46:38.486Z,19.90
2019-04-05T23:49:06.109Z,18.03
2019-04-05T23:51:33.784Z,19.07
2019-04-05T23:54:01.390Z,19.07
2019-04-05T23:56:29.031Z,19.37
2019-04-05T23:58:56.644Z,19.30
